Time;durP1;ratioP1;P1;durP2;ratioP2;P2;SDS_P1;SDS_P2;PMS_P1;PMS_P2;Temp;Humidity;BMP_temperature;BMP_pressure;BME280_temperature;BME280_humidity;BME280_pressure;Samples;Min_cycle;Max_cycle;Signal;HPM_P1;HPM_P2
2023/01/19 00:01:03;;;;;;;75.65;29.92;;;;;;;1.74;100.00;99052.81;5093386;28;20039;-71
2023/01/19 00:03:29;;;;;;;80.00;33.65;;;;;;;1.85;100.00;99063.63;5093230;28;20129;-72
2023/01/19 00:05:55;;;;;;;68.53;31.83;;;;;;;1.92;100.00;99069.78;5092838;28;20031;-73
2023/01/19 00:08:20;;;;;;;74.43;30.92;;;;;;;1.98;100.00;99072.00;5089963;28;20040;-72
2023/01/19 00:10:48;;;;;;;71.88;30.67;;;;;;;1.97;100.00;99076.84;5092711;28;20537;-73
2023/01/19 00:13:19;;;;;;;76.55;32.55;;;;;;;2.07;100.00;99077.66;5058141;28;20028;-72
2023/01/19 00:16:06;;;;;;;77.18;32.38;;;;;;;2.11;100.00;99084.69;5093020;28;20020;-73
2023/01/19 00:18:32;;;;;;;76.35;32.03;;;;;;;2.13;100.00;99087.84;5092605;28;20034;-74
2023/01/19 00:20:58;;;;;;;72.38;30.70;;;;;;;2.15;100.00;99096.59;5075096;28;20123;-72
2023/01/19 00:23:25;;;;;;;62.63;29.95;;;;;;;2.16;100.00;99098.19;5093886;28;20059;-72
2023/01/19 00:25:51;;;;;;;68.13;31.20;;;;;;;2.16;100.00;99098.19;5092391;28;20064;-70
2023/01/19 00:28:18;;;;;;;73.65;30.38;;;;;;;2.21;100.00;99102.41;5093914;28;20035;-72
2023/01/19 00:30:44;;;;;;;75.70;32.08;;;;;;;2.21;100.00;99103.19;5071956;28;20125;-71
2023/01/19 00:33:14;;;;;;;78.57;31.88;;;;;;;2.21;100.00;99102.41;5073467;28;20074;-72
2023/01/19 00:35:41;;;;;;;85.13;33.05;;;;;;;2.23;100.00;99105.56;5072592;28;20082;-71
2023/01/19 00:38:08;;;;;;;72.82;34.05;;;;;;;2.24;100.00;99107.91;5072354;28;20036;-72
2023/01/19 00:40:36;;;;;;;73.68;32.85;;;;;;;2.25;100.00;99108.69;5077745;28;20028;-71
2023/01/19 00:43:04;;;;;;;82.18;33.28;;;;;;;2.24;100.00;99109.94;5080334;28;20024;-71
2023/01/19 00:45:30;;;;;;;75.25;32.42;;;;;;;2.24;100.00;99104.31;5080188;28;20028;-71
2023/01/19 00:47:56;;;;;;;64.95;29.25;;;;;;;2.23;100.00;99106.34;5080353;28;20032;-73
2023/01/19 00:50:24;;;;;;;75.53;32.40;;;;;;;2.24;100.00;99119.16;5080173;28;20115;-73
2023/01/19 00:52:52;;;;;;;68.60;30.77;;;;;;;2.22;100.00;99116.03;5078529;28;20039;-72
2023/01/19 00:55:17;;;;;;;70.93;30.90;;;;;;;2.22;100.00;99124.50;5078949;28;20051;-72
2023/01/19 00:57:45;;;;;;;78.13;32.63;;;;;;;2.19;100.00;99131.03;5079818;28;20466;-71
2023/01/19 01:00:15;;;;;;;73.63;33.50;;;;;;;2.07;100.00;99129.13;5080117;28;20025;-73
2023/01/19 01:02:41;;;;;;;74.72;30.70;;;;;;;1.98;100.00;99128.31;5078584;28;20473;-71
2023/01/19 01:05:10;;;;;;;77.18;33.08;;;;;;;1.96;100.00;99131.59;5061839;28;20029;-70
2023/01/19 01:07:41;;;;;;;75.53;33.30;;;;;;;1.92;100.00;99137.38;5080043;28;20051;-72
2023/01/19 01:10:12;;;;;;;73.20;34.13;;;;;;;1.94;100.00;99141.78;5079842;28;20390;-71
2023/01/19 01:12:38;;;;;;;78.57;32.83;;;;;;;1.95;100.00;99155.38;5079575;28;20414;-70
2023/01/19 01:15:08;;;;;;;81.50;32.88;;;;;;;1.95;100.00;99152.56;5079866;28;20037;-72
2023/01/19 01:17:45;;;;;;;77.43;32.88;;;;;;;2.01;100.00;99150.72;5061836;28;20127;-71
2023/01/19 01:20:15;;;;;;;73.07;31.77;;;;;;;2.03;100.00;99156.69;5078739;28;20547;-72
2023/01/19 01:22:44;;;;;;;66.72;29.90;;;;;;;2.00;100.00;99154.75;5078432;28;20078;-71
2023/01/19 01:25:12;;;;;;;76.55;32.70;;;;;;;2.03;100.00;99136.16;5079892;28;20428;-72
2023/01/19 01:27:40;;;;;;;68.68;30.55;;;;;;;2.05;100.00;99153.38;5078275;28;20480;-72
2023/01/19 01:30:09;;;;;;;69.50;28.73;;;;;;;2.04;100.00;99149.00;5078234;28;20067;-71
2023/01/19 01:32:35;;;;;;;49.22;20.95;;;;;;;1.97;100.00;99150.06;5099124;28;20408;-72
2023/01/19 01:35:02;;;;;;;42.45;21.13;;;;;;;1.97;100.00;99160.53;5099986;28;20084;-71
2023/01/19 01:37:28;;;;;;;41.15;20.33;;;;;;;1.92;100.00;99162.72;5081594;28;20065;-72
2023/01/19 01:39:56;;;;;;;36.42;16.27;;;;;;;1.95;100.00;99169.44;5081674;28;20027;-70
2023/01/19 01:42:28;;;;;;;41.90;17.38;;;;;;;1.75;100.00;99167.00;5081634;28;20039;-71
2023/01/19 01:44:56;;;;;;;35.60;18.65;;;;;;;1.74;100.00;99168.28;5099755;28;20026;-72
2023/01/19 01:47:39;;;;;;;33.50;16.38;;;;;;;1.80;100.00;99168.44;5098725;28;20028;-72
2023/01/19 01:50:15;;;;;;;30.77;14.38;;;;;;;1.79;100.00;99164.06;5098388;28;20032;-72
2023/01/19 01:53:05;;;;;;;29.25;13.98;;;;;;;1.68;100.00;99170.09;5094240;28;20492;-71
2023/01/19 01:55:57;;;;;;;25.73;13.10;;;;;;;1.60;100.00;99168.78;5064810;28;20493;-71
2023/01/19 01:58:22;;;;;;;25.42;12.57;;;;;;;1.57;100.00;99168.94;5056324;28;20032;-70
2023/01/19 02:03:33;;;;;;;20.70;12.15;;;;;;;1.57;100.00;99166.09;5096080;28;20139;-72
2023/01/19 02:06:01;;;;;;;19.77;11.27;;;;;;;1.56;100.00;99159.69;5060215;28;20028;-71
2023/01/19 02:14:17;;;;;;;12.27;7.70;;;;;;;1.55;100.00;99154.53;5065410;28;20096;-71
2023/01/19 02:16:43;;;;;;;10.20;7.45;;;;;;;1.49;100.00;99165.59;5076891;28;20032;-71
2023/01/19 02:19:13;;;;;;;11.05;6.80;;;;;;;1.50;100.00;99161.56;5076691;28;20039;-71
2023/01/19 02:22:18;;;;;;;10.25;6.53;;;;;;;1.51;100.00;99171.53;5078079;28;20036;-70
2023/01/19 02:24:45;;;;;;;8.15;5.70;;;;;;;1.43;100.00;99178.69;5057261;28;20039;-71
2023/01/19 02:27:11;;;;;;;10.70;6.22;;;;;;;1.44;100.00;99180.28;5077798;28;20043;-72
2023/01/19 02:29:38;;;;;;;10.63;6.88;;;;;;;1.50;100.00;99181.25;5095784;28;20032;-71
2023/01/19 02:32:04;;;;;;;8.23;6.05;;;;;;;1.50;100.00;99188.91;5095089;28;20047;-70
2023/01/19 02:34:31;;;;;;;8.73;6.07;;;;;;;1.42;100.00;99182.75;5095815;28;20064;-72
2023/01/19 02:37:11;;;;;;;9.52;6.63;;;;;;;1.43;100.00;99187.94;5077596;28;20461;-71
2023/01/19 02:39:57;;;;;;;10.27;6.22;;;;;;;1.40;100.00;99188.81;5077636;28;20036;-71
2023/01/19 02:42:36;;;;;;;8.18;5.57;;;;;;;1.42;100.00;99191.97;5077379;28;20484;-71
2023/01/19 02:45:08;;;;;;;8.55;5.47;;;;;;;1.39;100.00;99189.31;5060704;28;20066;-71
2023/01/19 02:47:39;;;;;;;8.00;5.55;;;;;;;1.41;100.00;99187.59;5096189;28;20024;-71
2023/01/19 02:50:28;;;;;;;6.78;5.10;;;;;;;1.43;100.00;99190.75;5077469;28;20020;-71
2023/01/19 02:53:00;;;;;;;8.60;5.55;;;;;;;1.35;100.00;99183.03;5095169;28;20059;-71
2023/01/19 02:55:27;;;;;;;;;;;;;;;1.35;100.00;99183.03;5072394;28;20465;-71
2023/01/19 02:58:18;;;;;;;8.38;6.07;;;;;;;1.29;100.00;99180.00;5077345;28;19982;-72
2023/01/19 03:01:04;;;;;;;8.73;6.03;;;;;;;1.28;100.00;99174.81;5077129;28;20047;-71
2023/01/19 03:03:46;;;;;;;8.05;5.43;;;;;;;1.33;100.00;99177.06;5095090;28;20046;-71
2023/01/19 03:06:28;;;;;;;8.65;5.68;;;;;;;1.39;100.00;99180.84;5077057;28;20024;-71
2023/01/19 03:09:14;;;;;;;;;;;;;;;1.43;100.00;99184.31;5095548;28;20032;-71
2023/01/19 03:11:43;;;;;;;9.02;5.65;;;;;;;1.45;100.00;99188.22;5094177;28;20395;-70
2023/01/19 03:14:20;;;;;;;6.65;4.90;;;;;;;1.44;100.00;99185.91;5060315;28;20481;-71
2023/01/19 03:16:58;;;;;;;6.97;4.63;;;;;;;1.43;100.00;99178.69;5076647;28;20107;-72
2023/01/19 03:19:27;;;;;;;8.07;5.63;;;;;;;1.29;100.00;99174.38;5076847;28;20036;-71
2023/01/19 03:21:58;;;;;;;6.60;4.60;;;;;;;1.22;100.00;99183.06;5094895;28;20035;-70
2023/01/19 03:24:25;;;;;;;7.43;5.07;;;;;;;1.20;100.00;99182.75;5060157;28;20040;-70
2023/01/19 03:27:10;;;;;;;6.15;5.20;;;;;;;1.14;100.00;99187.38;5094448;28;20024;-70
2023/01/19 03:29:39;;;;;;;6.57;5.18;;;;;;;1.18;100.00;99179.59;5076790;28;20031;-70
2023/01/19 03:32:16;;;;;;;6.65;5.63;;;;;;;1.25;100.00;99187.78;5056195;28;20393;-70
2023/01/19 03:34:42;;;;;;;8.35;5.72;;;;;;;1.35;100.00;99185.84;5073264;28;20381;-72
2023/01/19 03:37:10;;;;;;;6.57;5.45;;;;;;;1.32;100.00;99187.53;5074029;28;20518;-72
2023/01/19 03:39:36;;;;;;;6.97;5.40;;;;;;;1.32;100.00;99193.16;5074320;28;20036;-71
2023/01/19 03:42:05;;;;;;;8.80;6.00;;;;;;;1.31;100.00;99187.97;5073065;28;20024;-70
2023/01/19 03:44:41;;;;;;;8.73;6.43;;;;;;;1.32;100.00;99192.34;5056254;28;20032;-71
2023/01/19 03:47:09;;;;;;;8.32;5.50;;;;;;;1.32;100.00;99192.34;5074408;28;20454;-71
2023/01/19 03:49:35;;;;;;;7.75;5.20;;;;;;;1.32;100.00;99187.53;5073936;28;20025;-71
2023/01/19 03:52:01;;;;;;;8.90;5.53;;;;;;;1.38;100.00;99182.09;5056352;28;20032;-71
2023/01/19 03:54:28;;;;;;;9.40;6.00;;;;;;;1.34;100.00;99184.25;5072562;28;20060;-72
2023/01/19 03:56:53;;;;;;;11.88;6.18;;;;;;;1.25;100.00;99181.38;5074037;28;20040;-71
2023/01/19 03:59:20;;;;;;;10.10;6.57;;;;;;;1.19;100.00;99177.56;5073244;28;20091;-70
2023/01/19 04:01:47;;;;;;;12.32;7.20;;;;;;;1.30;100.00;99190.03;5072841;28;20024;-73
2023/01/19 04:04:16;;;;;;;9.48;6.45;;;;;;;1.37;100.00;99191.78;5073147;28;20378;-70
2023/01/19 04:06:43;;;;;;;10.48;6.60;;;;;;;1.39;100.00;99194.94;5072397;28;20105;-71
2023/01/19 04:09:08;;;;;;;9.63;6.40;;;;;;;1.35;100.00;99195.06;5073388;28;20028;-71
2023/01/19 04:11:35;;;;;;;10.45;7.38;;;;;;;1.35;100.00;99199.91;5073980;28;20051;-71
2023/01/19 04:14:01;;;;;;;12.75;6.10;;;;;;;1.40;100.00;99197.25;5073751;28;20048;-70
2023/01/19 04:16:28;;;;;;;11.55;7.38;;;;;;;1.37;100.00;99212.25;5073818;28;20024;-71
2023/01/19 04:19:01;;;;;;;15.40;7.55;;;;;;;1.42;100.00;99214.50;5073805;28;20029;-71
2023/01/19 04:21:28;;;;;;;13.20;7.57;;;;;;;1.41;100.00;99214.94;5073700;28;20028;-71
2023/01/19 04:23:54;;;;;;;14.13;7.63;;;;;;;1.43;100.00;99223.72;5073694;28;20034;-70
2023/01/19 04:26:21;;;;;;;14.93;8.93;;;;;;;1.42;100.00;99224.97;5073627;28;20020;-71
2023/01/19 04:28:48;;;;;;;14.48;8.70;;;;;;;1.43;100.00;99229.34;5073512;28;20115;-71
2023/01/19 04:31:15;;;;;;;13.98;8.52;;;;;;;1.39;100.00;99225.88;5081354;28;20059;-71
2023/01/19 04:33:41;;;;;;;16.42;9.23;;;;;;;1.40;100.00;99236.66;5093865;28;20032;-71
2023/01/19 04:36:08;;;;;;;16.48;9.13;;;;;;;1.41;100.00;99240.25;5093444;28;20062;-71
2023/01/19 04:38:43;;;;;;;15.30;9.43;;;;;;;1.42;100.00;99248.25;5093736;28;20055;-72
2023/01/19 04:41:09;;;;;;;17.77;9.00;;;;;;;1.40;100.00;99245.09;5093389;28;20451;-71
2023/01/19 04:43:43;;;;;;;17.48;9.98;;;;;;;1.38;100.00;99249.63;5093601;28;20042;-71
2023/01/19 04:46:09;;;;;;;20.00;11.02;;;;;;;1.37;100.00;99262.91;5093668;28;20081;-70
2023/01/19 04:48:36;;;;;;;20.77;11.45;;;;;;;1.44;100.00;99282.38;5092700;28;20123;-72
2023/01/19 04:51:02;;;;;;;19.58;11.85;;;;;;;1.47;100.00;99289.91;5075277;28;20030;-70
2023/01/19 04:53:28;;;;;;;20.20;10.95;;;;;;;1.51;100.00;99295.38;5092259;28;20031;-71
2023/01/19 04:55:54;;;;;;;24.52;12.68;;;;;;;1.55;100.00;99298.09;5093545;28;20119;-71
2023/01/19 04:58:20;;;;;;;23.80;11.90;;;;;;;1.54;100.00;99300.13;5075531;28;20048;-71
2023/01/19 05:00:47;;;;;;;19.35;10.20;;;;;;;1.59;100.00;99308.00;5093535;28;20020;-72
2023/01/19 05:03:13;;;;;;;21.30;11.98;;;;;;;1.50;100.00;99301.50;5092105;28;20111;-70
2023/01/19 05:05:40;;;;;;;22.13;12.70;;;;;;;1.37;100.00;99313.56;5074987;28;20020;-71
2023/01/19 05:08:06;;;;;;;25.13;12.18;;;;;;;1.35;100.00;99313.25;5093157;28;20111;-71
2023/01/19 05:10:31;;;;;;;21.90;12.15;;;;;;;1.35;100.00;99316.06;5093032;28;20020;-71
2023/01/19 05:13:05;;;;;;;20.75;11.40;;;;;;;1.34;100.00;99325.75;5092851;28;20031;-71
2023/01/19 05:15:30;;;;;;;20.15;11.05;;;;;;;1.32;100.00;99331.03;5093357;28;20376;-71
2023/01/19 05:17:57;;;;;;;24.25;12.98;;;;;;;1.20;100.00;99328.25;5074321;28;20103;-71
2023/01/19 05:20:31;;;;;;;20.10;11.55;;;;;;;1.24;100.00;99320.47;5092806;28;20024;-72
2023/01/19 05:22:59;;;;;;;20.65;11.45;;;;;;;1.27;100.00;99322.38;5092983;28;20052;-71
2023/01/19 05:25:29;;;;;;;21.83;11.52;;;;;;;1.30;100.00;99316.66;5092772;28;20017;-72
2023/01/19 05:27:54;;;;;;;21.75;11.20;;;;;;;1.36;100.00;99312.00;5061067;28;20063;-72
2023/01/19 05:30:20;;;;;;;22.73;12.57;;;;;;;1.43;100.00;99310.97;5094485;28;20063;-71
2023/01/19 05:32:55;;;;;;;18.85;10.38;;;;;;;1.54;100.00;99313.41;5096194;28;20020;-71
2023/01/19 05:35:23;;;;;;;18.50;10.57;;;;;;;1.44;100.00;99310.53;5095694;28;20031;-72
2023/01/19 05:37:50;;;;;;;16.88;10.50;;;;;;;1.34;100.00;99310.88;5096439;28;20480;-75
2023/01/19 05:40:17;;;;;;;15.05;9.50;;;;;;;1.31;100.00;99315.38;5096703;28;20414;-75
2023/01/19 05:42:43;;;;;;;15.73;9.43;;;;;;;1.30;100.00;99325.09;5078946;28;20024;-76
2023/01/19 05:45:10;;;;;;;14.32;9.43;;;;;;;1.21;100.00;99318.56;5078295;28;20090;-74
2023/01/19 05:47:38;;;;;;;14.43;8.85;;;;;;;1.28;100.00;99316.28;5096143;28;20024;-74
2023/01/19 05:50:25;;;;;;;16.20;9.13;;;;;;;1.28;100.00;99318.31;5096450;28;20031;-74
2023/01/19 05:52:54;;;;;;;15.05;7.90;;;;;;;1.29;100.00;99308.66;5076826;28;20036;-73
2023/01/19 05:55:20;;;;;;;11.88;8.73;;;;;;;1.39;100.00;99325.16;5096478;28;20099;-72
2023/01/19 05:57:47;;;;;;;15.55;9.13;;;;;;;1.39;100.00;99330.81;5078279;28;20028;-73
2023/01/19 06:00:14;;;;;;;14.88;9.10;;;;;;;1.44;100.00;99330.22;5096412;28;20373;-73
2023/01/19 06:02:39;;;;;;;12.18;8.20;;;;;;;1.34;100.00;99342.63;5096022;28;20030;-74
2023/01/19 06:05:06;;;;;;;15.07;8.85;;;;;;;1.32;100.00;99361.19;5095947;28;20024;-75
2023/01/19 06:07:31;;;;;;;14.02;8.32;;;;;;;1.31;100.00;99362.44;5078496;28;20047;-77
2023/01/19 06:10:01;;;;;;;14.48;8.30;;;;;;;1.34;100.00;99375.59;5061107;28;20070;-71
2023/01/19 06:12:28;;;;;;;12.45;7.45;;;;;;;1.34;100.00;99372.78;5078229;28;20077;-74
2023/01/19 06:14:54;;;;;;;12.52;8.23;;;;;;;1.33;100.00;99366.38;5078437;28;20369;-75
2023/01/19 06:17:20;;;;;;;14.25;8.23;;;;;;;1.33;100.00;99371.22;5095897;28;20032;-76
2023/01/19 06:19:47;;;;;;;12.88;8.10;;;;;;;1.34;100.00;99370.78;5088589;28;20488;-74
2023/01/19 06:22:13;;;;;;;12.35;7.68;;;;;;;1.23;100.00;99370.31;5057593;28;20094;-76
2023/01/19 06:24:40;;;;;;;11.27;8.25;;;;;;;1.34;100.00;99378.41;5074516;28;20029;-73
2023/01/19 06:27:12;;;;;;;14.23;7.05;;;;;;;1.37;100.00;99388.75;5073544;28;20040;-78
2023/01/19 06:29:38;;;;;;;13.18;7.70;;;;;;;1.31;100.00;99388.53;5075007;28;20024;-75
2023/01/19 06:32:03;;;;;;;12.73;7.13;;;;;;;1.36;100.00;99378.75;5073735;28;20458;-77
2023/01/19 06:34:32;;;;;;;12.15;7.88;;;;;;;1.44;100.00;99397.78;5057044;28;20494;-77
2023/01/19 06:36:57;;;;;;;11.05;6.75;;;;;;;1.36;100.00;99402.03;5056039;28;20057;-76
2023/01/19 06:39:23;;;;;;;12.98;8.60;;;;;;;1.33;100.00;99397.31;5074938;28;20517;-77
2023/01/19 06:41:49;;;;;;;10.98;7.80;;;;;;;1.32;100.00;99398.56;5074619;28;20075;-78
2023/01/19 06:44:15;;;;;;;14.15;8.32;;;;;;;1.25;100.00;99390.38;5074066;28;20439;-77
2023/01/19 06:46:41;;;;;;;12.40;8.85;;;;;;;1.43;100.00;99412.28;5073858;28;20031;-76
2023/01/19 06:49:07;;;;;;;14.30;8.27;;;;;;;1.32;100.00;99394.97;5073870;28;20039;-77
2023/01/19 06:51:32;;;;;;;14.43;8.70;;;;;;;1.39;100.00;99412.41;5039278;28;20082;-76
2023/01/19 06:53:58;;;;;;;12.10;8.48;;;;;;;1.22;100.00;99394.06;5073773;28;20031;-77
2023/01/19 06:56:25;;;;;;;16.30;9.13;;;;;;;1.13;100.00;99390.38;5039293;28;20183;-77
2023/01/19 06:58:52;;;;;;;16.10;9.35;;;;;;;0.92;100.00;99366.50;5056684;28;20020;-77
2023/01/19 07:01:18;;;;;;;16.50;8.52;;;;;;;1.37;100.00;99425.34;5074711;28;20067;-78
2023/01/19 07:03:44;;;;;;;14.48;8.73;;;;;;;1.16;100.00;99386.66;5023605;28;20200;-78
2023/01/19 07:06:11;;;;;;;14.60;9.95;;;;;;;1.25;100.00;99393.19;5074746;28;20021;-77
2023/01/19 07:08:38;;;;;;;15.10;8.77;;;;;;;1.17;100.00;99374.16;5056744;28;20027;-78
2023/01/19 07:11:17;;;;;;;13.77;8.30;;;;;;;1.31;100.00;99411.06;5074296;28;20023;-78
2023/01/19 07:13:50;;;;;;;13.18;9.00;;;;;;;1.10;100.00;99392.06;5074439;28;20042;-77
2023/01/19 07:16:16;;;;;;;15.02;8.70;;;;;;;0.90;100.00;99360.56;5074558;28;20021;-76
2023/01/19 07:18:42;;;;;;;15.93;8.48;;;;;;;1.09;100.00;99395.31;5056650;28;20027;-78
2023/01/19 07:21:08;;;;;;;18.88;8.05;;;;;;;1.18;100.00;99421.53;5073598;28;20036;-79
2023/01/19 07:23:34;;;;;;;14.80;9.00;;;;;;;1.17;100.00;99414.34;5073891;28;20024;-74
2023/01/19 07:26:04;;;;;;;14.55;9.45;;;;;;;1.18;100.00;99421.53;5056565;28;20043;-74
2023/01/19 07:28:31;;;;;;;16.67;8.65;;;;;;;1.06;100.00;99387.78;5056687;28;20028;-70
2023/01/19 07:30:57;;;;;;;18.80;10.13;;;;;;;1.20;100.00;99421.88;5074576;28;20083;-70
2023/01/19 07:33:23;;;;;;;19.50;9.32;;;;;;;1.21;100.00;99417.81;5074266;28;20041;-71
2023/01/19 07:35:50;;;;;;;17.02;9.43;;;;;;;1.28;100.00;99425.25;5074483;28;20040;-71
2023/01/19 07:38:16;;;;;;;19.83;10.95;;;;;;;1.37;100.00;99417.69;5074202;28;20055;-70
2023/01/19 07:40:44;;;;;;;15.95;8.85;;;;;;;1.46;100.00;99420.59;5056165;28;20035;-70
2023/01/19 07:43:09;;;;;;;15.20;9.50;;;;;;;1.45;100.00;99416.22;5056889;28;20032;-72
2023/01/19 07:45:35;;;;;;;18.13;10.07;;;;;;;1.52;100.00;99414.41;5073905;28;20035;-73
2023/01/19 07:48:00;;;;;;;18.60;9.93;;;;;;;1.55;100.00;99413.50;5073785;28;20473;-71
2023/01/19 07:50:28;;;;;;;16.63;9.57;;;;;;;1.56;100.00;99407.41;5055694;28;20040;-80
2023/01/19 07:52:54;;;;;;;18.17;9.95;;;;;;;1.65;100.00;99407.50;5057273;28;20033;-79
2023/01/19 07:55:21;;;;;;;19.55;9.60;;;;;;;1.66;100.00;99411.91;5056148;28;20108;-80
2023/01/19 07:57:50;;;;;;;18.25;10.88;;;;;;;1.68;100.00;99417.09;5074480;28;20382;-79
2023/01/19 08:00:20;;;;;;;16.00;9.98;;;;;;;1.64;100.00;99414.41;5055835;28;20460;-70
2023/01/19 08:02:48;;;;;;;17.55;9.57;;;;;;;1.68;100.00;99415.06;5056374;28;20103;-72
2023/01/19 08:05:14;;;;;;;21.55;9.57;;;;;;;1.69;100.00;99427.09;5073469;28;20151;-71
2023/01/19 08:07:40;;;;;;;20.05;8.95;;;;;;;1.72;100.00;99432.63;5054893;28;20024;-72
2023/01/19 08:10:06;;;;;;;18.65;10.68;;;;;;;1.79;100.00;99426.75;5072327;28;20142;-73
2023/01/19 08:12:31;;;;;;;15.07;9.10;;;;;;;1.71;100.00;99435.88;5073029;28;20017;-72
2023/01/19 08:14:56;;;;;;;17.48;9.25;;;;;;;1.59;100.00;99431.88;5073050;28;20020;-73
2023/01/19 08:17:22;;;;;;;26.63;11.43;;;;;;;1.55;100.00;99441.66;5054689;28;20492;-76
2023/01/19 08:19:47;;;;;;;20.17;9.80;;;;;;;1.53;100.00;99444.94;5055553;28;20021;-76
2023/01/19 08:22:12;;;;;;;22.05;9.40;;;;;;;1.55;100.00;99447.28;5073589;28;20469;-77
2023/01/19 08:24:38;;;;;;;18.13;9.05;;;;;;;1.58;100.00;99435.13;5073582;28;20066;-77
2023/01/19 08:27:03;;;;;;;19.75;9.90;;;;;;;1.68;100.00;99443.22;5073472;28;20039;-77
2023/01/19 08:29:32;;;;;;;18.58;11.32;;;;;;;1.73;100.00;99437.00;5073736;28;20017;-76
2023/01/19 08:32:00;;;;;;;19.52;9.57;;;;;;;1.71;100.00;99455.59;5073580;28;20040;-75
2023/01/19 08:34:26;;;;;;;17.40;9.63;;;;;;;1.76;100.00;99447.34;5073661;28;20035;-76
2023/01/19 08:36:51;;;;;;;23.17;9.43;;;;;;;1.89;100.00;99461.44;5073577;28;20370;-77
2023/01/19 08:39:17;;;;;;;22.17;10.38;;;;;;;2.04;100.00;99467.34;5055544;28;20056;-75
2023/01/19 08:41:43;;;;;;;24.85;10.70;;;;;;;2.02;100.00;99450.91;5055434;28;20115;-75
2023/01/19 08:44:08;;;;;;;38.40;12.82;;;;;;;2.00;100.00;99458.22;5055222;28;20060;-71
2023/01/19 08:46:34;;;;;;;27.38;10.25;;;;;;;1.90;100.00;99465.78;5073382;28;20060;-72
2023/01/19 08:48:59;;;;;;;23.17;9.77;;;;;;;1.87;100.00;99461.09;5073545;28;20025;-73
2023/01/19 08:51:25;;;;;;;22.42;9.60;;;;;;;1.95;100.00;99465.22;5073645;28;20028;-74
2023/01/19 08:53:50;;;;;;;18.85;10.32;;;;;;;1.89;100.00;99453.75;5073317;28;20032;-73
2023/01/19 08:56:15;;;;;;;20.00;9.65;;;;;;;1.83;100.00;99458.38;5073405;28;20024;-73
2023/01/19 08:58:42;;;;;;;24.52;10.70;;;;;;;1.73;100.00;99461.56;5055214;28;20359;-76
2023/01/19 09:01:09;;;;;;;20.90;10.27;;;;;;;1.64;100.00;99470.72;5075291;28;20058;-75
2023/01/19 09:03:35;;;;;;;20.42;9.60;;;;;;;1.66;100.00;99478.69;5077261;28;20036;-75
2023/01/19 09:06:04;;;;;;;17.00;10.05;;;;;;;1.65;100.00;99465.88;5077154;28;20025;-75
2023/01/19 09:08:29;;;;;;;28.20;11.93;;;;;;;1.71;100.00;99473.28;5059098;28;20112;-74
2023/01/19 09:10:55;;;;;;;20.67;9.82;;;;;;;1.69;100.00;99484.22;5077317;28;20125;-74
2023/01/19 09:13:20;;;;;;;24.95;10.00;;;;;;;1.73;100.00;99481.28;5077339;28;20454;-74
2023/01/19 09:15:46;;;;;;;24.38;10.30;;;;;;;1.73;100.00;99489.72;5059459;28;20108;-74
2023/01/19 09:18:13;;;;;;;16.50;9.95;;;;;;;1.67;100.00;99486.69;5059566;28;20024;-77
2023/01/19 09:20:41;;;;;;;18.45;9.55;;;;;;;1.62;100.00;99494.91;5059020;28;20028;-75
2023/01/19 09:23:10;;;;;;;26.88;11.00;;;;;;;1.56;100.00;99497.50;5076890;28;20036;-78
2023/01/19 09:25:37;;;;;;;24.35;10.95;;;;;;;1.59;100.00;99501.44;5077071;28;20109;-80
2023/01/19 09:28:08;;;;;;;17.92;10.50;;;;;;;1.56;100.00;99503.13;5058970;28;20536;-78
2023/01/19 09:30:36;;;;;;;19.13;10.57;;;;;;;1.61;100.00;99508.19;5042184;28;20025;-78
2023/01/19 09:33:28;;;;;;;19.38;10.32;;;;;;;1.70;100.00;99508.28;5076552;28;20477;-80
2023/01/19 09:35:54;;;;;;;17.67;9.07;;;;;;;1.80;100.00;99506.38;5072897;28;20547;-74
2023/01/19 09:38:19;;;;;;;25.83;9.73;;;;;;;1.92;100.00;99506.38;5076540;28;20032;-77
2023/01/19 09:40:51;;;;;;;15.57;7.75;;;;;;;2.08;100.00;99507.47;5076864;28;20024;-76
2023/01/19 09:43:39;;;;;;;19.90;6.85;;;;;;;2.12;100.00;99505.31;5076783;28;20020;-76
2023/01/19 09:46:33;;;;;;;18.27;8.05;;;;;;;2.19;100.00;99505.06;5059136;28;20150;-75
2023/01/19 09:49:03;;;;;;;17.15;7.80;;;;;;;2.30;100.00;99497.81;5073732;28;20037;-74
2023/01/19 09:51:38;;;;;;;15.13;6.93;;;;;;;2.38;100.00;99486.28;5058727;28;20099;-73
2023/01/19 09:54:19;;;;;;;21.02;7.20;;;;;;;2.50;100.00;99491.84;5058185;28;20028;-77
2023/01/19 09:56:47;;;;;;;15.30;7.35;;;;;;;2.43;100.00;99489.31;5058472;28;20461;-78
2023/01/19 09:59:18;;;;;;;48.40;11.13;;;;;;;2.38;100.00;99486.28;5041797;28;20426;-77
2023/01/19 10:02:17;;;;;;;23.45;9.73;;;;;;;2.46;100.00;99479.94;5096895;28;20129;-78
2023/01/19 10:04:50;;;;;;;17.52;8.23;;;;;;;2.54;100.00;99480.47;5096415;28;20560;-78
2023/01/19 10:07:40;;;;;;;8.95;5.63;;;;;;;2.41;100.00;99474.88;5096772;28;20031;-76
2023/01/19 10:10:13;;;;;;;12.98;6.93;;;;;;;2.39;100.00;99482.22;5096640;28;20461;-77
2023/01/19 10:12:42;;;;;;;13.70;7.38;;;;;;;2.43;100.00;99468.78;5077811;28;20024;-76
2023/01/19 10:15:10;;;;;;;14.18;8.68;;;;;;;2.46;100.00;99474.28;5096526;28;20349;-77
2023/01/19 10:18:02;;;;;;;11.10;6.68;;;;;;;2.40;100.00;99464.84;5096601;28;20529;-77
2023/01/19 10:20:35;;;;;;;13.63;6.70;;;;;;;2.33;100.00;99479.19;5064647;28;20187;-77
2023/01/19 10:23:03;;;;;;;13.05;6.72;;;;;;;2.28;100.00;99479.78;5078111;28;20461;-78
2023/01/19 10:25:29;;;;;;;15.13;6.95;;;;;;;2.25;100.00;99475.84;5078072;28;20026;-75
2023/01/19 10:27:56;;;;;;;16.17;7.57;;;;;;;2.38;100.00;99478.63;5077878;28;20119;-75
2023/01/19 10:30:24;;;;;;;17.00;6.50;;;;;;;2.49;100.00;99473.38;5077842;28;20024;-74
2023/01/19 10:32:50;;;;;;;14.70;8.10;;;;;;;2.59;100.00;99471.41;5060868;28;20024;-75
2023/01/19 10:35:24;;;;;;;15.40;7.32;;;;;;;2.69;100.00;99479.47;5095810;28;20108;-74
2023/01/19 10:37:54;;;;;;;17.35;6.97;;;;;;;2.69;100.00;99476.66;5061551;28;20473;-75
2023/01/19 10:40:41;;;;;;;15.35;7.15;;;;;;;2.69;100.00;99479.47;5077781;28;20031;-75
2023/01/19 10:43:36;;;;;;;13.70;7.07;;;;;;;2.74;100.00;99476.06;5095739;28;20423;-73
2023/01/19 10:46:05;;;;;;;24.38;7.55;;;;;;;2.66;100.00;99476.78;5095186;28;20062;-74
2023/01/19 10:48:39;;;;;;;10.30;6.28;;;;;;;2.72;100.00;99487.03;5095466;28;20059;-74
2023/01/19 10:51:05;;;;;;;15.10;7.25;;;;;;;2.73;100.00;99487.81;5077618;28;20039;-73
2023/01/19 10:53:30;;;;;;;12.88;7.18;;;;;;;2.71;100.00;99491.09;5077541;28;20032;-74
2023/01/19 10:56:21;;;;;;;12.30;6.95;;;;;;;2.72;100.00;99489.06;5095345;28;20051;-73
2023/01/19 10:58:46;;;;;;;14.82;7.68;;;;;;;2.79;100.00;99475.47;5094996;28;20043;-74
2023/01/19 11:01:20;;;;;;;13.57;7.10;;;;;;;2.90;100.00;99485.56;5077528;28;20020;-75
2023/01/19 11:03:46;;;;;;;14.50;6.43;;;;;;;2.84;100.00;99478.94;5077391;28;20028;-76
2023/01/19 11:06:14;;;;;;;12.00;7.00;;;;;;;2.78;100.00;99479.53;5094903;28;20032;-78
2023/01/19 11:08:44;;;;;;;14.50;6.70;;;;;;;2.72;100.00;99484.22;5077132;28;20035;-77
2023/01/19 11:11:11;;;;;;;11.60;6.78;;;;;;;2.65;100.00;99481.63;5060321;28;20027;-78
2023/01/19 11:13:37;;;;;;;18.95;6.07;;;;;;;2.61;100.00;99481.00;5077574;28;20020;-78
2023/01/19 11:16:15;;;;;;;11.60;5.93;;;;;;;2.56;100.00;99484.41;5077412;28;20073;-77
2023/01/19 11:18:42;;;;;;;11.80;6.55;;;;;;;2.60;100.00;99470.94;5095182;28;20084;-76
2023/01/19 11:21:13;;;;;;;13.27;5.75;;;;;;;2.60;100.00;99462.50;5095030;28;20032;-76
2023/01/19 11:23:52;;;;;;;13.70;5.73;;;;;;;2.60;100.00;99472.97;5077126;28;20422;-81
2023/01/19 11:26:41;;;;;;;13.80;6.28;;;;;;;2.65;100.00;99472.38;5077556;28;20788;-85
2023/01/19 11:29:16;;;;;;;14.48;6.50;;;;;;;2.71;100.00;99471.34;5095996;28;20028;-83
2023/01/19 11:31:42;;;;;;;10.82;6.25;;;;;;;2.61;100.00;99464.06;5082045;28;20071;-86
2023/01/19 11:34:22;;;;;;;11.23;6.35;;;;;;;2.68;100.00;99468.66;5081763;28;20024;-83
2023/01/19 11:36:57;;;;;;;14.77;5.82;;;;;;;2.69;100.00;99464.56;5082170;28;20024;-86
2023/01/19 11:39:26;;;;;;;13.50;6.25;;;;;;;2.66;100.00;99465.50;5084043;28;20028;-88
2023/01/19 11:41:58;;;;;;;19.38;7.20;;;;;;;2.62;100.00;99464.84;5081813;28;20120;-87
2023/01/19 11:44:29;;;;;;;10.55;6.03;;;;;;;2.61;100.00;99463.28;5082366;28;20024;-88